sensor_id;sensor_type;location;lat;lon;timestamp;P1;durP1;ratioP1;P2;durP2;ratioP2
62353;SDS011;48391;49.184;2.418;2023-08-24T05:25:58;0.38;;;0.38;;
62353;SDS011;48391;49.184;2.418;2023-08-24T05:28:25;0.30;;;0.30;;
62353;SDS011;48391;49.184;2.418;2023-08-24T05:30:54;0.32;;;0.32;;
62353;SDS011;48391;49.184;2.418;2023-08-24T05:33:21;0.20;;;0.20;;
62353;SDS011;48391;49.184;2.418;2023-08-24T05:35:47;0.30;;;0.20;;
62353;SDS011;48391;49.184;2.418;2023-08-24T05:38:14;0.30;;;0.30;;
62353;SDS011;48391;49.184;2.418;2023-08-24T05:40:40;0.28;;;0.28;;
62353;SDS011;48391;49.184;2.418;2023-08-24T05:43:07;0.50;;;0.35;;
62353;SDS011;48391;49.184;2.418;2023-08-24T05:45:33;0.43;;;0.43;;
62353;SDS011;48391;49.184;2.418;2023-08-24T05:47:59;0.30;;;0.20;;
62353;SDS011;48391;49.184;2.418;2023-08-24T05:50:25;0.20;;;0.10;;
62353;SDS011;48391;49.184;2.418;2023-08-24T05:52:51;0.32;;;0.32;;
62353;SDS011;48391;49.184;2.418;2023-08-24T05:55:17;1.30;;;0.63;;
62353;SDS011;48391;49.184;2.418;2023-08-24T05:57:43;0.70;;;0.50;;
62353;SDS011;48391;49.184;2.418;2023-08-24T06:00:10;0.40;;;0.40;;
62353;SDS011;48391;49.184;2.418;2023-08-24T06:02:36;0.80;;;0.80;;
62353;SDS011;48391;49.184;2.418;2023-08-24T06:05:02;0.88;;;0.88;;
62353;SDS011;48391;49.184;2.418;2023-08-24T06:07:29;1.40;;;0.77;;
62353;SDS011;48391;49.184;2.418;2023-08-24T06:09:58;0.80;;;0.80;;
62353;SDS011;48391;49.184;2.418;2023-08-24T06:12:24;0.60;;;0.60;;
62353;SDS011;48391;49.184;2.418;2023-08-24T06:14:50;0.43;;;0.43;;
62353;SDS011;48391;49.184;2.418;2023-08-24T06:17:16;1.08;;;0.50;;
62353;SDS011;48391;49.184;2.418;2023-08-24T06:19:42;0.43;;;0.40;;
62353;SDS011;48391;49.184;2.418;2023-08-24T06:22:08;0.50;;;0.50;;
62353;SDS011;48391;49.184;2.418;2023-08-24T06:24:34;0.88;;;0.65;;
62353;SDS011;48391;49.184;2.418;2023-08-24T06:27:01;0.88;;;0.88;;
62353;SDS011;48391;49.184;2.418;2023-08-24T06:29:28;0.70;;;0.70;;
62353;SDS011;48391;49.184;2.418;2023-08-24T06:31:54;0.65;;;0.65;;
62353;SDS011;48391;49.184;2.418;2023-08-24T06:34:21;0.40;;;0.40;;
62353;SDS011;48391;49.184;2.418;2023-08-24T06:36:47;0.30;;;0.30;;
62353;SDS011;48391;49.184;2.418;2023-08-24T06:39:13;0.40;;;0.40;;
62353;SDS011;48391;49.184;2.418;2023-08-24T06:41:39;1.38;;;0.50;;
62353;SDS011;48391;49.184;2.418;2023-08-24T06:44:05;0.43;;;0.43;;
62353;SDS011;48391;49.184;2.418;2023-08-24T06:46:31;0.63;;;0.30;;
62353;SDS011;48391;49.184;2.418;2023-08-24T06:48:58;0.15;;;0.10;;
62353;SDS011;48391;49.184;2.418;2023-08-24T06:51:24;0.20;;;0.20;;
62353;SDS011;48391;49.184;2.418;2023-08-24T06:53:50;0.20;;;0.20;;
62353;SDS011;48391;49.184;2.418;2023-08-24T06:56:17;0.20;;;0.20;;
62353;SDS011;48391;49.184;2.418;2023-08-24T06:58:43;0.30;;;0.30;;
62353;SDS011;48391;49.184;2.418;2023-08-24T07:01:10;0.20;;;0.20;;
62353;SDS011;48391;49.184;2.418;2023-08-24T07:03:36;0.40;;;0.20;;
62353;SDS011;48391;49.184;2.418;2023-08-24T07:06:02;0.35;;;0.30;;
62353;SDS011;48391;49.184;2.418;2023-08-24T07:08:29;0.70;;;0.22;;
62353;SDS011;48391;49.184;2.418;2023-08-24T07:10:55;0.43;;;0.30;;
62353;SDS011;48391;49.184;2.418;2023-08-24T07:13:21;0.47;;;0.43;;
62353;SDS011;48391;49.184;2.418;2023-08-24T07:15:47;0.20;;;0.20;;
62353;SDS011;48391;49.184;2.418;2023-08-24T07:18:14;0.63;;;0.43;;
62353;SDS011;48391;49.184;2.418;2023-08-24T07:20:40;0.40;;;0.40;;
62353;SDS011;48391;49.184;2.418;2023-08-24T07:23:06;0.47;;;0.30;;
62353;SDS011;48391;49.184;2.418;2023-08-24T07:25:32;0.65;;;0.65;;
62353;SDS011;48391;49.184;2.418;2023-08-24T07:27:58;1.17;;;0.52;;
62353;SDS011;48391;49.184;2.418;2023-08-24T07:30:26;0.50;;;0.50;;
62353;SDS011;48391;49.184;2.418;2023-08-24T07:32:52;0.32;;;0.32;;
62353;SDS011;48391;49.184;2.418;2023-08-24T07:35:18;1.35;;;0.77;;
62353;SDS011;48391;49.184;2.418;2023-08-24T07:37:45;0.75;;;0.52;;
62353;SDS011;48391;49.184;2.418;2023-08-24T07:40:12;0.50;;;0.40;;
62353;SDS011;48391;49.184;2.418;2023-08-24T07:42:45;1.30;;;0.85;;
62353;SDS011;48391;49.184;2.418;2023-08-24T07:45:12;1.35;;;1.05;;
62353;SDS011;48391;49.184;2.418;2023-08-24T07:47:39;1.35;;;1.35;;
62353;SDS011;48391;49.184;2.418;2023-08-24T07:50:05;1.83;;;1.50;;
62353;SDS011;48391;49.184;2.418;2023-08-24T07:52:32;2.33;;;1.90;;
62353;SDS011;48391;49.184;2.418;2023-08-24T07:54:58;3.10;;;2.25;;
62353;SDS011;48391;49.184;2.418;2023-08-24T07:57:25;2.70;;;1.80;;
62353;SDS011;48391;49.184;2.418;2023-08-24T07:59:52;2.90;;;1.88;;
62353;SDS011;48391;49.184;2.418;2023-08-24T08:02:18;1.98;;;1.80;;
62353;SDS011;48391;49.184;2.418;2023-08-24T08:04:44;3.50;;;2.17;;
62353;SDS011;48391;49.184;2.418;2023-08-24T08:07:11;1.65;;;1.55;;
62353;SDS011;48391;49.184;2.418;2023-08-24T08:09:37;1.60;;;1.50;;
62353;SDS011;48391;49.184;2.418;2023-08-24T08:12:03;1.63;;;1.52;;
62353;SDS011;48391;49.184;2.418;2023-08-24T08:14:30;1.67;;;1.58;;
62353;SDS011;48391;49.184;2.418;2023-08-24T08:16:56;2.28;;;2.00;;
62353;SDS011;48391;49.184;2.418;2023-08-24T08:19:22;2.47;;;2.28;;
62353;SDS011;48391;49.184;2.418;2023-08-24T08:21:50;0.77;;;0.77;;
62353;SDS011;48391;49.184;2.418;2023-08-24T08:24:16;1.73;;;1.63;;
62353;SDS011;48391;49.184;2.418;2023-08-24T08:26:42;1.13;;;0.90;;
62353;SDS011;48391;49.184;2.418;2023-08-24T08:29:08;1.65;;;0.80;;
62353;SDS011;48391;49.184;2.418;2023-08-24T08:31:34;0.68;;;0.68;;
62353;SDS011;48391;49.184;2.418;2023-08-24T08:34:00;2.28;;;0.90;;
62353;SDS011;48391;49.184;2.418;2023-08-24T08:36:29;2.60;;;1.30;;
62353;SDS011;48391;49.184;2.418;2023-08-24T08:38:57;1.67;;;1.52;;
62353;SDS011;48391;49.184;2.418;2023-08-24T08:41:23;1.70;;;1.60;;
62353;SDS011;48391;49.184;2.418;2023-08-24T08:43:53;1.42;;;1.20;;
62353;SDS011;48391;49.184;2.418;2023-08-24T08:46:19;1.52;;;1.42;;
62353;SDS011;48391;49.184;2.418;2023-08-24T08:48:45;1.90;;;1.20;;
62353;SDS011;48391;49.184;2.418;2023-08-24T08:51:12;1.60;;;1.50;;
62353;SDS011;48391;49.184;2.418;2023-08-24T08:53:39;3.00;;;1.50;;
62353;SDS011;48391;49.184;2.418;2023-08-24T08:56:05;1.60;;;1.40;;
62353;SDS011;48391;49.184;2.418;2023-08-24T08:58:32;1.77;;;1.15;;
62353;SDS011;48391;49.184;2.418;2023-08-24T09:01:01;2.65;;;1.67;;
62353;SDS011;48391;49.184;2.418;2023-08-24T09:03:29;2.38;;;1.73;;
62353;SDS011;48391;49.184;2.418;2023-08-24T09:05:56;1.45;;;1.35;;
62353;SDS011;48391;49.184;2.418;2023-08-24T09:08:23;3.08;;;1.42;;
62353;SDS011;48391;49.184;2.418;2023-08-24T09:10:49;1.25;;;1.13;;
62353;SDS011;48391;49.184;2.418;2023-08-24T09:13:16;1.60;;;1.50;;
62353;SDS011;48391;49.184;2.418;2023-08-24T09:15:42;1.02;;;0.80;;
62353;SDS011;48391;49.184;2.418;2023-08-24T09:18:08;3.00;;;1.25;;
62353;SDS011;48391;49.184;2.418;2023-08-24T09:20:34;2.08;;;1.77;;
62353;SDS011;48391;49.184;2.418;2023-08-24T09:23:01;0.75;;;0.68;;
62353;SDS011;48391;49.184;2.418;2023-08-24T09:25:27;1.10;;;1.00;;
62353;SDS011;48391;49.184;2.418;2023-08-24T09:28:00;1.13;;;0.90;;
62353;SDS011;48391;49.184;2.418;2023-08-24T09:30:29;1.95;;;0.80;;
62353;SDS011;48391;49.184;2.418;2023-08-24T09:33:00;1.27;;;0.68;;
62353;SDS011;48391;49.184;2.418;2023-08-24T09:35:26;2.28;;;1.02;;
62353;SDS011;48391;49.184;2.418;2023-08-24T09:37:52;2.67;;;1.08;;
62353;SDS011;48391;49.184;2.418;2023-08-24T09:40:23;0.98;;;0.60;;
62353;SDS011;48391;49.184;2.418;2023-08-24T09:42:49;1.63;;;0.82;;
62353;SDS011;48391;49.184;2.418;2023-08-24T09:45:15;0.70;;;0.70;;
62353;SDS011;48391;49.184;2.418;2023-08-24T09:47:48;0.82;;;0.73;;
62353;SDS011;48391;49.184;2.418;2023-08-24T09:50:15;1.13;;;0.80;;
62353;SDS011;48391;49.184;2.418;2023-08-24T09:52:43;0.60;;;0.60;;
62353;SDS011;48391;49.184;2.418;2023-08-24T09:55:11;2.38;;;1.10;;
62353;SDS011;48391;49.184;2.418;2023-08-24T09:57:38;3.67;;;0.77;;
62353;SDS011;48391;49.184;2.418;2023-08-24T10:00:08;0.40;;;0.40;;
62353;SDS011;48391;49.184;2.418;2023-08-24T10:02:47;0.82;;;0.68;;
62353;SDS011;48391;49.184;2.418;2023-08-24T10:05:15;1.75;;;0.82;;
62353;SDS011;48391;49.184;2.418;2023-08-24T10:07:48;0.75;;;0.73;;
62353;SDS011;48391;49.184;2.418;2023-08-24T10:10:15;0.43;;;0.43;;
62353;SDS011;48391;49.184;2.418;2023-08-24T10:12:44;0.75;;;0.70;;
62353;SDS011;48391;49.184;2.418;2023-08-24T10:15:13;0.40;;;0.40;;
62353;SDS011;48391;49.184;2.418;2023-08-24T10:17:40;0.63;;;0.63;;
62353;SDS011;48391;49.184;2.418;2023-08-24T10:20:07;1.33;;;0.20;;
62353;SDS011;48391;49.184;2.418;2023-08-24T10:22:34;0.40;;;0.40;;
62353;SDS011;48391;49.184;2.418;2023-08-24T10:25:01;0.65;;;0.20;;
62353;SDS011;48391;49.184;2.418;2023-08-24T10:27:27;0.60;;;0.43;;
62353;SDS011;48391;49.184;2.418;2023-08-24T10:29:53;0.43;;;0.30;;
62353;SDS011;48391;49.184;2.418;2023-08-24T10:32:19;0.82;;;0.55;;
62353;SDS011;48391;49.184;2.418;2023-08-24T10:34:46;0.90;;;0.80;;
62353;SDS011;48391;49.184;2.418;2023-08-24T10:37:12;0.70;;;0.70;;
62353;SDS011;48391;49.184;2.418;2023-08-24T10:39:45;2.58;;;1.42;;
62353;SDS011;48391;49.184;2.418;2023-08-24T10:42:12;4.20;;;1.88;;
62353;SDS011;48391;49.184;2.418;2023-08-24T10:44:39;4.22;;;1.75;;
62353;SDS011;48391;49.184;2.418;2023-08-24T10:47:12;1.77;;;1.05;;
62353;SDS011;48391;49.184;2.418;2023-08-24T10:49:39;1.15;;;1.05;;
62353;SDS011;48391;49.184;2.418;2023-08-24T10:52:24;1.20;;;1.10;;
62353;SDS011;48391;49.184;2.418;2023-08-24T10:54:53;1.95;;;1.10;;
62353;SDS011;48391;49.184;2.418;2023-08-24T10:57:21;1.45;;;0.90;;
62353;SDS011;48391;49.184;2.418;2023-08-24T11:00:03;2.05;;;0.85;;
62353;SDS011;48391;49.184;2.418;2023-08-24T11:02:47;2.92;;;1.23;;
62353;SDS011;48391;49.184;2.418;2023-08-24T11:08:01;2.28;;;0.70;;
62353;SDS011;48391;49.184;2.418;2023-08-24T11:15:38;0.50;;;0.50;;
62353;SDS011;48391;49.184;2.418;2023-08-24T11:20:49;2.65;;;1.00;;
62353;SDS011;48391;49.184;2.418;2023-08-24T11:23:16;1.08;;;0.65;;
62353;SDS011;48391;49.184;2.418;2023-08-24T11:25:42;0.45;;;0.43;;
62353;SDS011;48391;49.184;2.418;2023-08-24T11:28:08;0.50;;;0.50;;
62353;SDS011;48391;49.184;2.418;2023-08-24T11:30:34;0.40;;;0.30;;
62353;SDS011;48391;49.184;2.418;2023-08-24T11:33:01;1.27;;;0.50;;
62353;SDS011;48391;49.184;2.418;2023-08-24T11:35:28;0.95;;;0.52;;
62353;SDS011;48391;49.184;2.418;2023-08-24T11:37:55;3.40;;;0.90;;
62353;SDS011;48391;49.184;2.418;2023-08-24T11:40:21;0.60;;;0.50;;
62353;SDS011;48391;49.184;2.418;2023-08-24T11:42:54;1.17;;;0.35;;
62353;SDS011;48391;49.184;2.418;2023-08-24T11:45:20;2.53;;;0.93;;
62353;SDS011;48391;49.184;2.418;2023-08-24T11:47:47;2.38;;;1.10;;
62353;SDS011;48391;49.184;2.418;2023-08-24T11:50:13;2.38;;;1.58;;
62353;SDS011;48391;49.184;2.418;2023-08-24T11:52:40;3.63;;;1.65;;
62353;SDS011;48391;49.184;2.418;2023-08-24T11:55:06;6.28;;;2.22;;
62353;SDS011;48391;49.184;2.418;2023-08-24T11:57:33;2.08;;;0.95;;
62353;SDS011;48391;49.184;2.418;2023-08-24T11:59:59;1.80;;;1.10;;
62353;SDS011;48391;49.184;2.418;2023-08-24T12:02:26;1.40;;;1.10;;
62353;SDS011;48391;49.184;2.418;2023-08-24T12:04:53;2.45;;;1.38;;
62353;SDS011;48391;49.184;2.418;2023-08-24T12:07:20;4.03;;;1.10;;
62353;SDS011;48391;49.184;2.418;2023-08-24T12:09:46;1.45;;;0.85;;
62353;SDS011;48391;49.184;2.418;2023-08-24T12:12:16;0.65;;;0.65;;
62353;SDS011;48391;49.184;2.418;2023-08-24T12:14:43;0.68;;;0.45;;
62353;SDS011;48391;49.184;2.418;2023-08-24T12:17:09;2.53;;;0.68;;
62353;SDS011;48391;49.184;2.418;2023-08-24T12:19:35;0.77;;;0.50;;
62353;SDS011;48391;49.184;2.418;2023-08-24T12:22:02;3.95;;;1.40;;
62353;SDS011;48391;49.184;2.418;2023-08-24T12:24:28;1.00;;;0.93;;
62353;SDS011;48391;49.184;2.418;2023-08-24T12:26:55;1.27;;;0.65;;
62353;SDS011;48391;49.184;2.418;2023-08-24T12:29:23;2.15;;;0.88;;
62353;SDS011;48391;49.184;2.418;2023-08-24T12:31:49;0.40;;;0.30;;
62353;SDS011;48391;49.184;2.418;2023-08-24T12:34:15;0.43;;;0.43;;
62353;SDS011;48391;49.184;2.418;2023-08-24T12:36:41;1.20;;;0.80;;
62353;SDS011;48391;49.184;2.418;2023-08-24T12:39:10;1.27;;;0.90;;
62353;SDS011;48391;49.184;2.418;2023-08-24T12:41:38;1.30;;;0.70;;
62353;SDS011;48391;49.184;2.418;2023-08-24T12:44:04;0.85;;;0.60;;
62353;SDS011;48391;49.184;2.418;2023-08-24T12:46:33;1.00;;;0.60;;
62353;SDS011;48391;49.184;2.418;2023-08-24T12:49:03;1.63;;;0.90;;
62353;SDS011;48391;49.184;2.418;2023-08-24T12:51:29;1.75;;;0.88;;
62353;SDS011;48391;49.184;2.418;2023-08-24T12:53:55;3.10;;;0.90;;
62353;SDS011;48391;49.184;2.418;2023-08-24T12:56:21;0.60;;;0.60;;
62353;SDS011;48391;49.184;2.418;2023-08-24T12:58:47;0.75;;;0.73;;
62353;SDS011;48391;49.184;2.418;2023-08-24T13:01:13;1.90;;;0.88;;
62353;SDS011;48391;49.184;2.418;2023-08-24T13:03:39;0.95;;;0.88;;
62353;SDS011;48391;49.184;2.418;2023-08-24T13:06:08;2.22;;;1.05;;
62353;SDS011;48391;49.184;2.418;2023-08-24T13:08:34;0.95;;;0.77;;
62353;SDS011;48391;49.184;2.418;2023-08-24T13:11:00;1.30;;;1.20;;
62353;SDS011;48391;49.184;2.418;2023-08-24T13:13:26;1.70;;;1.10;;
62353;SDS011;48391;49.184;2.418;2023-08-24T13:15:52;1.75;;;1.42;;
62353;SDS011;48391;49.184;2.418;2023-08-24T13:18:18;1.30;;;0.85;;
62353;SDS011;48391;49.184;2.418;2023-08-24T13:20:44;1.98;;;1.65;;
62353;SDS011;48391;49.184;2.418;2023-08-24T13:23:10;1.73;;;1.33;;
62353;SDS011;48391;49.184;2.418;2023-08-24T13:25:37;1.45;;;1.35;;
62353;SDS011;48391;49.184;2.418;2023-08-24T13:28:03;1.25;;;1.10;;
62353;SDS011;48391;49.184;2.418;2023-08-24T13:30:29;1.75;;;1.00;;
62353;SDS011;48391;49.184;2.418;2023-08-24T13:32:55;1.10;;;0.80;;
62353;SDS011;48391;49.184;2.418;2023-08-24T13:35:21;1.40;;;1.30;;
62353;SDS011;48391;49.184;2.418;2023-08-24T13:37:47;2.80;;;1.80;;
62353;SDS011;48391;49.184;2.418;2023-08-24T13:40:13;3.03;;;1.65;;
62353;SDS011;48391;49.184;2.418;2023-08-24T13:42:39;0.90;;;0.90;;
62353;SDS011;48391;49.184;2.418;2023-08-24T13:45:05;1.13;;;0.93;;
62353;SDS011;48391;49.184;2.418;2023-08-24T13:47:32;1.95;;;1.10;;
62353;SDS011;48391;49.184;2.418;2023-08-24T13:49:58;2.53;;;1.90;;
62353;SDS011;48391;49.184;2.418;2023-08-24T13:52:24;2.20;;;2.00;;
62353;SDS011;48391;49.184;2.418;2023-08-24T13:54:50;6.03;;;2.08;;
62353;SDS011;48391;49.184;2.418;2023-08-24T13:57:16;2.47;;;2.28;;
62353;SDS011;48391;49.184;2.418;2023-08-24T13:59:42;2.53;;;1.80;;
62353;SDS011;48391;49.184;2.418;2023-08-24T14:02:08;2.28;;;2.17;;
62353;SDS011;48391;49.184;2.418;2023-08-24T14:04:36;1.80;;;1.70;;
62353;SDS011;48391;49.184;2.418;2023-08-24T14:07:02;3.58;;;2.53;;
62353;SDS011;48391;49.184;2.418;2023-08-24T14:09:28;2.85;;;1.90;;
62353;SDS011;48391;49.184;2.418;2023-08-24T14:11:54;2.10;;;2.00;;
62353;SDS011;48391;49.184;2.418;2023-08-24T14:14:20;2.55;;;2.35;;
62353;SDS011;48391;49.184;2.418;2023-08-24T14:16:48;2.47;;;2.17;;
62353;SDS011;48391;49.184;2.418;2023-08-24T14:19:19;3.40;;;3.10;;
62353;SDS011;48391;49.184;2.418;2023-08-24T14:21:45;2.42;;;2.22;;
62353;SDS011;48391;49.184;2.418;2023-08-24T14:24:11;3.55;;;2.65;;
62353;SDS011;48391;49.184;2.418;2023-08-24T14:26:37;3.42;;;2.60;;
62353;SDS011;48391;49.184;2.418;2023-08-24T14:29:04;2.85;;;2.38;;
62353;SDS011;48391;49.184;2.418;2023-08-24T14:31:30;2.90;;;2.63;;
62353;SDS011;48391;49.184;2.418;2023-08-24T14:33:56;2.83;;;2.40;;
62353;SDS011;48391;49.184;2.418;2023-08-24T14:36:23;2.75;;;2.55;;
62353;SDS011;48391;49.184;2.418;2023-08-24T14:38:49;2.53;;;2.33;;
62353;SDS011;48391;49.184;2.418;2023-08-24T14:41:19;2.47;;;2.28;;
62353;SDS011;48391;49.184;2.418;2023-08-24T14:43:45;2.22;;;2.10;;
62353;SDS011;48391;49.184;2.418;2023-08-24T14:46:11;2.13;;;2.03;;
62353;SDS011;48391;49.184;2.418;2023-08-24T14:48:37;2.63;;;2.42;;
62353;SDS011;48391;49.184;2.418;2023-08-24T14:51:04;1.60;;;1.50;;
62353;SDS011;48391;49.184;2.418;2023-08-24T14:53:30;2.72;;;1.65;;
62353;SDS011;48391;49.184;2.418;2023-08-24T14:55:57;3.95;;;2.15;;
62353;SDS011;48391;49.184;2.418;2023-08-24T14:58:24;2.17;;;2.00;;
62353;SDS011;48391;49.184;2.418;2023-08-24T15:00:50;1.33;;;1.23;;
62353;SDS011;48391;49.184;2.418;2023-08-24T15:03:17;1.30;;;1.23;;
62353;SDS011;48391;49.184;2.418;2023-08-24T15:05:56;1.95;;;1.85;;
62353;SDS011;48391;49.184;2.418;2023-08-24T15:08:23;1.30;;;1.30;;
62353;SDS011;48391;49.184;2.418;2023-08-24T15:10:54;1.58;;;1.48;;
62353;SDS011;48391;49.184;2.418;2023-08-24T15:13:20;1.42;;;1.15;;
62353;SDS011;48391;49.184;2.418;2023-08-24T15:15:46;1.20;;;1.20;;
62353;SDS011;48391;49.184;2.418;2023-08-24T15:18:13;1.75;;;1.65;;
62353;SDS011;48391;49.184;2.418;2023-08-24T15:20:39;1.98;;;1.73;;
62353;SDS011;48391;49.184;2.418;2023-08-24T15:23:05;1.10;;;1.10;;
62353;SDS011;48391;49.184;2.418;2023-08-24T15:25:32;2.78;;;1.63;;
62353;SDS011;48391;49.184;2.418;2023-08-24T15:27:58;1.60;;;1.30;;
62353;SDS011;48391;49.184;2.418;2023-08-24T15:30:24;2.92;;;1.58;;
62353;SDS011;48391;49.184;2.418;2023-08-24T15:32:50;1.23;;;1.05;;
62353;SDS011;48391;49.184;2.418;2023-08-24T15:35:16;1.40;;;1.25;;
62353;SDS011;48391;49.184;2.418;2023-08-24T15:37:53;1.10;;;1.10;;
62353;SDS011;48391;49.184;2.418;2023-08-24T15:40:29;1.05;;;0.90;;
62353;SDS011;48391;49.184;2.418;2023-08-24T15:42:56;1.45;;;1.35;;
62353;SDS011;48391;49.184;2.418;2023-08-24T15:45:23;1.48;;;1.15;;
62353;SDS011;48391;49.184;2.418;2023-08-24T15:47:50;1.40;;;1.30;;
62353;SDS011;48391;49.184;2.418;2023-08-24T15:50:19;1.40;;;1.30;;
62353;SDS011;48391;49.184;2.418;2023-08-24T15:52:45;2.67;;;0.90;;
62353;SDS011;48391;49.184;2.418;2023-08-24T15:55:11;0.90;;;0.80;;
62353;SDS011;48391;49.184;2.418;2023-08-24T15:57:37;1.70;;;1.00;;
62353;SDS011;48391;49.184;2.418;2023-08-24T16:00:03;1.48;;;1.38;;
62353;SDS011;48391;49.184;2.418;2023-08-24T16:02:29;1.42;;;1.30;;
62353;SDS011;48391;49.184;2.418;2023-08-24T16:04:55;1.70;;;1.08;;
62353;SDS011;48391;49.184;2.418;2023-08-24T16:07:21;2.50;;;0.93;;
62353;SDS011;48391;49.184;2.418;2023-08-24T16:09:47;0.80;;;0.80;;
62353;SDS011;48391;49.184;2.418;2023-08-24T16:12:13;1.80;;;1.05;;
62353;SDS011;48391;49.184;2.418;2023-08-24T16:14:39;0.75;;;0.75;;
62353;SDS011;48391;49.184;2.418;2023-08-24T16:17:05;0.68;;;0.68;;
62353;SDS011;48391;49.184;2.418;2023-08-24T16:19:31;1.10;;;1.00;;
62353;SDS011;48391;49.184;2.418;2023-08-24T16:21:57;0.60;;;0.60;;
62353;SDS011;48391;49.184;2.418;2023-08-24T16:24:25;1.52;;;1.42;;
62353;SDS011;48391;49.184;2.418;2023-08-24T16:26:51;1.95;;;0.60;;
62353;SDS011;48391;49.184;2.418;2023-08-24T16:29:17;1.08;;;1.08;;
62353;SDS011;48391;49.184;2.418;2023-08-24T16:31:43;1.17;;;1.10;;
62353;SDS011;48391;49.184;2.418;2023-08-24T16:34:09;0.80;;;0.80;;
62353;SDS011;48391;49.184;2.418;2023-08-24T16:36:35;1.05;;;1.05;;
62353;SDS011;48391;49.184;2.418;2023-08-24T16:39:02;1.05;;;1.02;;
62353;SDS011;48391;49.184;2.418;2023-08-24T16:41:28;1.90;;;1.25;;
62353;SDS011;48391;49.184;2.418;2023-08-24T16:43:56;2.85;;;1.05;;
62353;SDS011;48391;49.184;2.418;2023-08-24T16:46:22;1.15;;;0.93;;
62353;SDS011;48391;49.184;2.418;2023-08-24T16:48:48;0.68;;;0.68;;
62353;SDS011;48391;49.184;2.418;2023-08-24T16:51:14;0.60;;;0.60;;
62353;SDS011;48391;49.184;2.418;2023-08-24T16:53:40;0.50;;;0.50;;
62353;SDS011;48391;49.184;2.418;2023-08-24T16:56:06;0.90;;;0.82;;
62353;SDS011;48391;49.184;2.418;2023-08-24T16:58:32;1.02;;;0.77;;
62353;SDS011;48391;49.184;2.418;2023-08-24T17:01:05;1.80;;;0.90;;
62353;SDS011;48391;49.184;2.418;2023-08-24T17:03:31;1.20;;;1.10;;
62353;SDS011;48391;49.184;2.418;2023-08-24T17:05:57;0.98;;;0.82;;
62353;SDS011;48391;49.184;2.418;2023-08-24T17:08:23;1.67;;;0.88;;
62353;SDS011;48391;49.184;2.418;2023-08-24T17:10:49;0.80;;;0.70;;
62353;SDS011;48391;49.184;2.418;2023-08-24T17:13:15;1.73;;;0.60;;
62353;SDS011;48391;49.184;2.418;2023-08-24T17:15:41;0.50;;;0.50;;
62353;SDS011;48391;49.184;2.418;2023-08-24T17:18:07;1.10;;;0.43;;
62353;SDS011;48391;49.184;2.418;2023-08-24T17:20:34;1.15;;;0.80;;
62353;SDS011;48391;49.184;2.418;2023-08-24T17:23:01;0.82;;;0.70;;
62353;SDS011;48391;49.184;2.418;2023-08-24T17:25:28;0.77;;;0.77;;
62353;SDS011;48391;49.184;2.418;2023-08-24T17:27:55;0.70;;;0.70;;
62353;SDS011;48391;49.184;2.418;2023-08-24T17:30:21;0.40;;;0.40;;
62353;SDS011;48391;49.184;2.418;2023-08-24T17:32:48;0.30;;;0.30;;
62353;SDS011;48391;49.184;2.418;2023-08-24T17:35:14;1.00;;;0.70;;
62353;SDS011;48391;49.184;2.418;2023-08-24T17:37:40;0.82;;;0.38;;
62353;SDS011;48391;49.184;2.418;2023-08-24T17:40:07;0.55;;;0.50;;
62353;SDS011;48391;49.184;2.418;2023-08-24T17:42:35;0.22;;;0.22;;
62353;SDS011;48391;49.184;2.418;2023-08-24T17:45:02;0.60;;;0.60;;
62353;SDS011;48391;49.184;2.418;2023-08-24T17:47:28;0.60;;;0.60;;
62353;SDS011;48391;49.184;2.418;2023-08-24T17:49:54;0.40;;;0.40;;
62353;SDS011;48391;49.184;2.418;2023-08-24T17:52:20;0.30;;;0.30;;
62353;SDS011;48391;49.184;2.418;2023-08-24T17:54:46;0.65;;;0.65;;
62353;SDS011;48391;49.184;2.418;2023-08-24T17:57:12;0.77;;;0.50;;
62353;SDS011;48391;49.184;2.418;2023-08-24T17:59:38;0.50;;;0.50;;
62353;SDS011;48391;49.184;2.418;2023-08-24T18:02:04;0.40;;;0.40;;
62353;SDS011;48391;49.184;2.418;2023-08-24T18:04:30;0.50;;;0.50;;
62353;SDS011;48391;49.184;2.418;2023-08-24T18:06:56;0.60;;;0.50;;
62353;SDS011;48391;49.184;2.418;2023-08-24T18:09:22;1.10;;;0.50;;
62353;SDS011;48391;49.184;2.418;2023-08-24T18:11:48;0.52;;;0.52;;
62353;SDS011;48391;49.184;2.418;2023-08-24T18:14:14;0.50;;;0.40;;
62353;SDS011;48391;49.184;2.418;2023-08-24T18:16:40;0.50;;;0.43;;
62353;SDS011;48391;49.184;2.418;2023-08-24T18:19:06;1.17;;;0.63;;
62353;SDS011;48391;49.184;2.418;2023-08-24T18:21:32;0.60;;;0.60;;
62353;SDS011;48391;49.184;2.418;2023-08-24T18:23:58;0.38;;;0.32;;
62353;SDS011;48391;49.184;2.418;2023-08-24T18:26:24;0.45;;;0.40;;
62353;SDS011;48391;49.184;2.418;2023-08-24T18:28:50;0.50;;;0.50;;
62353;SDS011;48391;49.184;2.418;2023-08-24T18:31:16;0.68;;;0.50;;
62353;SDS011;48391;49.184;2.418;2023-08-24T18:33:43;0.40;;;0.40;;
62353;SDS011;48391;49.184;2.418;2023-08-24T18:36:09;0.70;;;0.70;;
62353;SDS011;48391;49.184;2.418;2023-08-24T18:38:35;0.50;;;0.50;;
62353;SDS011;48391;49.184;2.418;2023-08-24T18:41:01;0.68;;;0.57;;
62353;SDS011;48391;49.184;2.418;2023-08-24T18:43:28;0.30;;;0.30;;
62353;SDS011;48391;49.184;2.418;2023-08-24T18:45:55;1.75;;;0.35;;
62353;SDS011;48391;49.184;2.418;2023-08-24T18:48:21;0.40;;;0.38;;
62353;SDS011;48391;49.184;2.418;2023-08-24T18:50:47;0.45;;;0.32;;
62353;SDS011;48391;49.184;2.418;2023-08-24T18:53:13;0.30;;;0.30;;
62353;SDS011;48391;49.184;2.418;2023-08-24T18:55:39;1.00;;;0.65;;
62353;SDS011;48391;49.184;2.418;2023-08-24T18:58:05;0.40;;;0.40;;
62353;SDS011;48391;49.184;2.418;2023-08-24T19:00:32;0.52;;;0.52;;
62353;SDS011;48391;49.184;2.418;2023-08-24T19:02:58;0.52;;;0.43;;
62353;SDS011;48391;49.184;2.418;2023-08-24T19:05:24;0.82;;;0.55;;
62353;SDS011;48391;49.184;2.418;2023-08-24T19:07:50;0.60;;;0.60;;
62353;SDS011;48391;49.184;2.418;2023-08-24T19:10:16;1.38;;;0.98;;
62353;SDS011;48391;49.184;2.418;2023-08-24T19:12:42;0.40;;;0.40;;
62353;SDS011;48391;49.184;2.418;2023-08-24T19:15:11;0.40;;;0.40;;
62353;SDS011;48391;49.184;2.418;2023-08-24T19:17:38;0.60;;;0.60;;
62353;SDS011;48391;49.184;2.418;2023-08-24T19:20:04;0.85;;;0.85;;
62353;SDS011;48391;49.184;2.418;2023-08-24T19:22:30;0.70;;;0.70;;
62353;SDS011;48391;49.184;2.418;2023-08-24T19:24:57;0.77;;;0.30;;
62353;SDS011;48391;49.184;2.418;2023-08-24T19:27:23;1.08;;;0.70;;
62353;SDS011;48391;49.184;2.418;2023-08-24T19:29:49;1.42;;;0.95;;
62353;SDS011;48391;49.184;2.418;2023-08-24T19:32:15;0.63;;;0.60;;
62353;SDS011;48391;49.184;2.418;2023-08-24T19:34:41;1.00;;;0.70;;
62353;SDS011;48391;49.184;2.418;2023-08-24T19:37:07;0.50;;;0.50;;
62353;SDS011;48391;49.184;2.418;2023-08-24T19:39:33;1.13;;;0.50;;
62353;SDS011;48391;49.184;2.418;2023-08-24T19:41:59;0.57;;;0.57;;
62353;SDS011;48391;49.184;2.418;2023-08-24T19:44:25;1.15;;;0.90;;
62353;SDS011;48391;49.184;2.418;2023-08-24T19:46:52;0.90;;;0.90;;
62353;SDS011;48391;49.184;2.418;2023-08-24T19:49:18;0.57;;;0.57;;
62353;SDS011;48391;49.184;2.418;2023-08-24T19:51:44;0.88;;;0.88;;
62353;SDS011;48391;49.184;2.418;2023-08-24T19:54:10;0.70;;;0.70;;
62353;SDS011;48391;49.184;2.418;2023-08-24T19:56:36;0.93;;;0.82;;
62353;SDS011;48391;49.184;2.418;2023-08-24T19:59:02;0.60;;;0.60;;
62353;SDS011;48391;49.184;2.418;2023-08-24T20:01:28;0.82;;;0.80;;
62353;SDS011;48391;49.184;2.418;2023-08-24T20:03:54;2.88;;;0.77;;
62353;SDS011;48391;49.184;2.418;2023-08-24T20:06:21;0.40;;;0.40;;
62353;SDS011;48391;49.184;2.418;2023-08-24T20:08:48;1.67;;;0.63;;
62353;SDS011;48391;49.184;2.418;2023-08-24T20:11:14;0.70;;;0.50;;
62353;SDS011;48391;49.184;2.418;2023-08-24T20:13:41;0.60;;;0.60;;
62353;SDS011;48391;49.184;2.418;2023-08-24T20:16:07;0.45;;;0.45;;
62353;SDS011;48391;49.184;2.418;2023-08-24T20:18:33;0.38;;;0.32;;
62353;SDS011;48391;49.184;2.418;2023-08-24T20:20:59;0.17;;;0.17;;